Quick Links (Output Below):   Max & Min Temps   /   Climate Reports   /   Zone Forecasts
River Forecasts   /   Forestry Forecasts   /   Aviation Forecasts   /   Radars   /   Features

Terminal Aerodrome Forecast (Highfill)

Pick a Site:
Arkadelphia | El Dorado | Fayetteville | Fort Smith | Harrison | Highfill | Hot Springs | Jonesboro
Little Rock | Monticello | Mountain Home | Pine Bluff | Texarkana
 Forecast 

KXNA 251140Z 2512/2612 VRB06KT P6SM SCT040 BKN250
     FM251800 25008KT P6SM VCTS BKN050CB BKN120
     FM252100 32011KT P6SM VCTS SCT025 BKN040CB BKN120
      TEMPO 2521/2524 6SM -TSRA BKN022CB
     FM260000 36010KT P6SM BKN025 BKN040
     FM260400 01007KT P6SM BKN045 BKN100=


 Latest METARs (Observations) 
How to Decode METARs
14Z KXNA 251353Z 00000KT 10SM CLR 22/21 A3010 RMK AO2 SLP180
         T02220206
         
13Z KXNA 251253Z 00000KT 8SM CLR 21/20 A3010 RMK AO2 SLP179
         T02060200
         
12Z KXNA 251153Z 00000KT 8SM CLR 19/19 A3008 RMK AO2 SLP171 T01940194
         10206 20183 51011
         
11Z KXNA 251053Z 00000KT 9SM CLR 19/19 A3007 RMK AO2 SLP168
         T01940189
         
10Z KXNA 250953Z 34004KT 9SM CLR 19/19 A3006 RMK AO2 SLP164
         T01890189
         
09Z KXNA 250853Z AUTO 00000KT 10SM CLR 21/19 A3005 RMK AO2 SLP158
         T02060194 58002
         
08Z KXNA 250753Z AUTO 00000KT 10SM CLR 21/19 A3006 RMK AO2 SLP162
         T02060194
         
07Z KXNA 250653Z AUTO 31005KT 10SM CLR 20/19 A3006 RMK AO2 SLP164
         T02000189
         
06Z KXNA 250553Z AUTO 10003KT 10SM CLR 21/19 A3005 RMK AO2 SLP160
         T02060194 10278 20206 403220200 52001
         
05Z KXNA 250453Z AUTO 20004KT 10SM CLR 22/20 A3005 RMK AO2 SLP160
         T02170200
         
***** Today's Observations (Above) *****


Back to Main Page
http://www.srh.noaa.gov/lzk/qfcst.php

USA.gov is the U.S. government's official web portal to all federal, state and local government web resources and services.